Time;durP1;ratioP1;P1;durP2;ratioP2;P2;SDS_P1;SDS_P2;PMS_P1;PMS_P2;Temp;Humidity;BMP_temperature;BMP_pressure;BME280_temperature;BME280_humidity;BME280_pressure;Samples;Min_cycle;Max_cycle;Signal;HPM_P1;HPM_P2
2022/10/16 00:01:45;;;;;;;;;1.80;1.80;;;;;16.91;75.74;100529.19;4976334;28;45813;-64
2022/10/16 00:04:11;;;;;;;;;3.00;3.00;;;;;16.92;75.81;100542.00;4975093;28;45425;-65
2022/10/16 00:06:37;;;;;;;;;2.50;2.50;;;;;16.69;75.58;100493.22;4976434;28;45446;-65
2022/10/16 00:09:02;;;;;;;;;2.50;2.50;;;;;16.94;75.59;100540.63;4975495;28;45621;-65
2022/10/16 00:11:30;;;;;;;;;2.00;2.00;;;;;16.71;75.51;100493.78;4976191;28;45438;-64
2022/10/16 00:13:57;;;;;;;;;2.80;2.80;;;;;16.70;75.69;100492.13;4976230;28;45332;-64
2022/10/16 00:16:22;;;;;;;;;0.80;0.80;;;;;16.85;75.88;100539.41;4976409;28;45332;-64
2022/10/16 00:18:48;;;;;;;;;13.50;12.75;;;;;16.84;76.01;100539.66;4975061;28;45431;-64
2022/10/16 00:21:22;;;;;;;;;3.25;3.25;;;;;16.87;75.65;100547.47;4974677;28;46620;-65
2022/10/16 00:23:50;;;;;;;;;1.00;1.00;;;;;16.84;75.90;100553.50;4976132;28;45366;-65
2022/10/16 00:26:16;;;;;;;;;1.00;1.00;;;;;16.87;75.87;100553.00;4975897;28;45466;-64
2022/10/16 00:28:42;;;;;;;;;1.00;1.00;;;;;16.88;75.66;100555.53;4975345;28;45299;-64
2022/10/16 00:31:09;;;;;;;;;1.00;1.00;;;;;16.75;75.52;100519.91;4974723;28;46303;-64
2022/10/16 00:33:35;;;;;;;;;1.20;1.00;;;;;16.83;75.84;100538.84;4975971;28;45396;-65
2022/10/16 00:36:01;;;;;;;;;1.00;1.00;;;;;16.87;75.87;100553.00;4976691;28;45335;-64
2022/10/16 00:38:26;;;;;;;;;2.00;2.00;;;;;16.67;75.85;100524.78;4976304;28;45379;-64
2022/10/16 00:40:52;;;;;;;;;3.00;3.00;;;;;16.85;75.92;100556.03;4976103;28;45452;-64
2022/10/16 00:43:49;;;;;;;;;2.00;2.00;;;;;16.89;75.90;100567.44;4975089;28;45327;-64
2022/10/16 00:46:34;;;;;;;;;2.60;2.00;;;;;16.90;75.79;100564.41;4974461;28;45408;-64
2022/10/16 00:49:25;;;;;;;;;1.80;1.80;;;;;16.89;75.73;100567.44;4976274;28;45271;-64
2022/10/16 00:51:52;;;;;;;;;2.00;2.00;;;;;16.93;75.69;100580.50;4961144;28;47575;-64
2022/10/16 00:54:20;;;;;;;;;1.20;1.20;;;;;16.89;75.76;100567.44;4956766;28;45390;-65
2022/10/16 00:56:46;;;;;;;;;4.80;2.80;;;;;16.74;75.98;100546.75;4955080;28;45340;-64
2022/10/16 00:59:24;;;;;;;;;1.50;1.50;;;;;16.67;76.07;100538.63;4939913;28;45885;-65
2022/10/16 01:01:50;;;;;;;;;3.00;1.60;;;;;16.82;76.22;100566.78;4924362;28;48454;-64
2022/10/16 01:04:15;;;;;;;;;3.00;2.00;;;;;16.82;76.33;100562.09;4956850;28;45746;-65
2022/10/16 01:06:59;;;;;;;;;0.25;0.25;;;;;16.83;76.20;100557.38;4939058;28;45361;-66
2022/10/16 01:09:53;;;;;;;;;3.00;1.80;;;;;16.84;76.09;100559.91;4939554;28;45393;-64
2022/10/16 01:12:40;;;;;;;;;1.40;1.00;;;;;16.85;76.05;100566.28;4955043;28;47286;-65
2022/10/16 01:15:27;;;;;;;;;1.00;1.00;;;;;16.82;76.23;100566.78;4956108;28;45355;-64
2022/10/16 01:18:02;;;;;;;;;2.00;2.00;;;;;16.84;76.15;100581.22;4956247;28;45460;-65
2022/10/16 01:20:30;;;;;;;;;1.40;1.20;;;;;16.80;76.00;100572.59;4939396;28;45413;-66
2022/10/16 01:23:14;;;;;;;;;1.60;1.40;;;;;16.87;75.93;100580.72;4928133;28;46023;-66
2022/10/16 01:26:06;;;;;;;;;3.00;2.80;;;;;16.88;75.85;100582.41;4956121;28;45470;-65
2022/10/16 01:28:39;;;;;;;;;2.40;2.40;;;;;16.78;75.38;100556.25;4954756;28;45372;-64
2022/10/16 01:31:04;;;;;;;;;3.00;3.00;;;;;16.91;75.27;100573.56;4954501;28;45257;-64
2022/10/16 01:33:36;;;;;;;;;1.25;1.25;;;;;16.86;75.23;100577.09;4954698;28;46264;-66
2022/10/16 01:36:13;;;;;;;;;1.60;1.60;;;;;16.87;75.59;100586.28;4954745;28;45445;-67
2022/10/16 01:38:39;;;;;;;;;1.80;1.80;;;;;16.85;75.08;100585.69;4938816;28;45329;-66
2022/10/16 01:41:17;;;;;;;;;1.00;1.00;;;;;16.69;75.31;100557.78;4956183;28;45506;-66
2022/10/16 01:43:48;;;;;;;;;1.00;1.00;;;;;16.85;75.15;100574.63;4954469;28;46103;-64
2022/10/16 01:46:15;;;;;;;;;3.00;2.00;;;;;16.83;75.25;100574.88;4954394;28;45328;-65
2022/10/16 01:48:40;;;;;;;;;1.00;1.00;;;;;16.83;74.85;100574.00;4954342;28;45485;-65
2022/10/16 01:51:08;;;;;;;;;1.00;1.00;;;;;16.61;74.88;100542.47;4956762;28;45741;-65
2022/10/16 01:53:34;;;;;;;;;2.60;2.60;;;;;16.80;75.06;100576.22;4957791;28;45491;-64
2022/10/16 01:55:59;;;;;;;;;3.00;2.00;;;;;16.82;75.03;100578.72;4957615;28;45454;-64
2022/10/16 01:58:25;;;;;;;;;1.00;1.00;;;;;16.80;74.91;100580.91;4958375;28;45541;-64
2022/10/16 02:00:51;;;;;;;;;1.75;1.75;;;;;16.78;74.75;100567.34;4994139;28;45579;-65
2022/10/16 02:03:17;;;;;;;;;1.50;0.50;;;;;16.79;75.09;100571.78;4977899;28;46202;-64
2022/10/16 02:05:49;;;;;;;;;1.00;1.00;;;;;16.80;74.86;100580.91;4977488;28;45382;-64
2022/10/16 02:08:14;;;;;;;;;1.80;1.80;;;;;16.73;74.85;100574.72;4977129;28;45489;-65
2022/10/16 02:10:40;;;;;;;;;1.75;1.75;;;;;16.77;74.95;100581.44;4961088;28;45657;-65
2022/10/16 02:13:22;;;;;;;;;2.50;1.00;;;;;16.79;74.86;100570.91;4977005;28;46725;-65
2022/10/16 02:15:47;;;;;;;;;0.20;0.20;;;;;16.82;74.70;100583.44;4993123;28;46186;-67
2022/10/16 02:18:13;;;;;;;;;1.00;1.00;;;;;16.83;74.71;100590.63;4977009;28;45471;-64
2022/10/16 02:20:47;;;;;;;;;2.00;1.00;;;;;16.83;74.76;100597.03;4977351;28;45597;-64
2022/10/16 02:23:16;;;;;;;;;1.00;1.00;;;;;16.84;74.46;100586.78;4977975;28;45363;-66
2022/10/16 02:25:42;;;;;;;;;0.80;0.80;;;;;16.84;74.34;100586.78;4961186;28;45436;-63
2022/10/16 02:28:19;;;;;;;;;2.00;1.00;;;;;16.83;74.02;100583.19;4960684;28;45370;-66
2022/10/16 02:30:53;;;;;;;;;2.00;1.00;;;;;16.82;74.25;100587.06;4962291;28;45471;-65
2022/10/16 02:33:19;;;;;;;;;1.00;1.00;;;;;16.78;73.83;100586.72;4960626;28;45279;-67
2022/10/16 02:35:45;;;;;;;;;1.75;1.75;;;;;16.83;73.90;100594.25;4960888;28;45378;-66
2022/10/16 02:38:10;;;;;;;;;2.00;1.00;;;;;16.74;73.57;100579.16;4961060;28;45692;-66
2022/10/16 02:40:36;;;;;;;;;0.50;0.50;;;;;16.70;73.64;100576.06;4978352;28;45377;-66
2022/10/16 02:43:03;;;;;;;;;1.00;1.00;;;;;16.76;73.50;100588.06;4960656;28;45365;-64
2022/10/16 02:45:29;;;;;;;;;0.00;0.00;;;;;16.69;73.50;100570.81;4976590;28;45323;-63
2022/10/16 02:47:54;;;;;;;;;0.00;0.00;;;;;16.60;72.80;100571.22;4978571;28;45446;-63
2022/10/16 02:50:20;;;;;;;;;1.00;0.25;;;;;16.77;72.90;100600.84;4978350;28;45375;-62
2022/10/16 02:52:45;;;;;;;;;0.75;0.75;;;;;16.74;73.10;100610.50;4962361;28;45450;-64
2022/10/16 02:55:11;;;;;;;;;1.50;1.00;;;;;16.70;72.89;100605.72;4957140;28;45996;-64
2022/10/16 02:57:37;;;;;;;;;0.25;0.25;;;;;16.65;72.88;100593.47;4957236;28;45445;-64
2022/10/16 03:00:04;;;;;;;;;2.00;1.00;;;;;16.74;72.81;100615.19;4958534;28;45544;-64
2022/10/16 03:02:30;;;;;;;;;1.00;1.00;;;;;16.69;72.84;100610.41;4957927;28;46414;-64
2022/10/16 03:04:55;;;;;;;;;1.25;1.25;;;;;16.74;72.42;100612.41;4956762;28;46140;-65
2022/10/16 03:07:21;;;;;;;;;2.00;0.00;;;;;16.44;72.72;100578.50;4957178;28;45317;-65
2022/10/16 03:09:46;;;;;;;;;0.50;0.50;;;;;16.71;72.70;100615.72;4940388;28;45446;-65
2022/10/16 03:12:12;;;;;;;;;0.00;0.00;;;;;16.47;72.65;100586.31;4936066;28;46014;-67
2022/10/16 03:14:37;;;;;;;;;1.00;1.00;;;;;16.72;72.80;100622.94;4977134;28;45342;-65
2022/10/16 03:17:03;;;;;;;;;1.00;1.00;;;;;16.71;73.12;100619.31;4976496;28;45311;-64
2022/10/16 03:19:28;;;;;;;;;0.25;0.25;;;;;16.67;72.26;100610.66;4977818;28;45493;-65
2022/10/16 03:21:54;;;;;;;;;0.00;0.00;;;;;16.69;72.33;100627.03;4976212;28;46082;-65
2022/10/16 03:24:19;;;;;;;;;0.75;0.75;;;;;16.50;72.49;100594.09;4959873;28;45476;-64
2022/10/16 03:26:45;;;;;;;;;0.75;0.75;;;;;16.63;72.63;100615.06;4977505;28;45418;-64
2022/10/16 03:29:10;;;;;;;;;1.00;1.00;;;;;16.72;72.86;100625.69;4976174;28;45367;-63
2022/10/16 03:31:36;;;;;;;;;1.50;0.00;;;;;16.73;72.52;100610.75;4976859;28;46443;-66
2022/10/16 03:34:01;;;;;;;;;0.75;0.75;;;;;16.72;72.29;100598.00;4976803;28;45465;-64
2022/10/16 03:36:27;;;;;;;;;3.00;1.00;;;;;16.70;72.33;100591.88;4977307;28;45374;-64
2022/10/16 03:38:52;;;;;;;;;1.50;0.50;;;;;16.67;71.84;100576.59;4975876;28;45313;-64
2022/10/16 03:41:17;;;;;;;;;1.25;0.00;;;;;16.62;71.68;100590.38;4977001;28;45459;-64
2022/10/16 03:43:43;;;;;;;;;0.00;0.00;;;;;16.55;72.01;100586.97;4975583;28;45470;-64
2022/10/16 03:46:08;;;;;;;;;0.00;0.00;;;;;16.37;72.27;100567.63;4975869;28;45388;-64
2022/10/16 03:48:34;;;;;;;;;0.00;0.00;;;;;16.53;72.35;100596.38;4976018;28;45259;-64
2022/10/16 03:51:00;;;;;;;;;0.00;0.00;;;;;16.44;72.42;100597.06;4959354;28;46913;-64
2022/10/16 03:53:25;;;;;;;;;1.00;1.00;;;;;16.50;72.28;100604.34;4956535;28;45475;-65
2022/10/16 03:55:51;;;;;;;;;0.00;0.00;;;;;16.40;72.38;100580.94;4957315;28;45269;-66
2022/10/16 03:58:16;;;;;;;;;0.00;0.00;;;;;16.48;72.51;100607.38;4956270;28;45338;-65
2022/10/16 04:00:43;;;;;;;;;0.00;0.00;;;;;16.52;72.48;100616.00;4957349;28;46189;-66
2022/10/16 04:03:08;;;;;;;;;0.60;0.60;;;;;16.55;72.26;100614.66;4957062;28;45342;-66
2022/10/16 04:05:34;;;;;;;;;2.00;1.00;;;;;16.28;71.67;100580.22;4957404;28;45401;-65
2022/10/16 04:08:00;;;;;;;;;0.75;0.75;;;;;16.40;72.48;100605.03;4955829;28;45291;-64
2022/10/16 04:10:25;;;;;;;;;0.00;0.00;;;;;16.40;72.49;100600.31;4955495;28;46730;-65
2022/10/16 04:12:51;;;;;;;;;0.00;0.00;;;;;16.45;72.37;100604.28;4957147;28;45336;-64
2022/10/16 04:15:16;;;;;;;;;1.00;0.00;;;;;16.30;72.50;100578.03;4944929;28;45605;-64
2022/10/16 04:17:42;;;;;;;;;4.00;2.00;;;;;16.47;72.22;100616.78;4975222;28;45433;-64
2022/10/16 04:20:08;;;;;;;;;0.00;0.00;;;;;16.52;72.18;100616.00;4974695;28;46103;-64
2022/10/16 04:22:33;;;;;;;;;1.00;1.00;;;;;16.55;72.24;100618.28;4975952;28;45519;-64
2022/10/16 04:24:59;;;;;;;;;0.00;0.00;;;;;16.53;72.09;100606.59;4958812;28;45383;-65
2022/10/16 04:27:25;;;;;;;;;0.00;0.00;;;;;16.52;72.04;100616.84;4974942;28;45358;-65
2022/10/16 04:29:50;;;;;;;;;0.50;0.00;;;;;16.57;72.18;100637.41;4942266;28;48585;-65
2022/10/16 04:32:15;;;;;;;;;0.00;0.00;;;;;16.57;71.77;100629.94;4974701;28;45280;-65
2022/10/16 04:34:41;;;;;;;;;0.00;0.00;;;;;16.57;71.74;100635.47;4974967;28;45402;-65
2022/10/16 04:37:07;;;;;;;;;0.00;0.00;;;;;16.56;72.02;100644.03;4976376;28;45376;-65
2022/10/16 04:39:32;;;;;;;;;0.00;0.00;;;;;16.52;72.13;100652.88;4974902;28;45765;-65
2022/10/16 04:41:57;;;;;;;;;0.00;0.00;;;;;16.47;72.19;100661.09;4974993;28;45424;-65
2022/10/16 04:44:23;;;;;;;;;0.00;0.00;;;;;16.38;71.86;100649.59;4974780;28;45363;-65
2022/10/16 04:46:50;;;;;;;;;0.25;0.25;;;;;16.48;71.94;100656.38;4975051;28;45455;-65
2022/10/16 04:49:16;;;;;;;;;0.00;0.00;;;;;16.49;72.14;100658.09;4975606;28;46515;-64
2022/10/16 04:51:41;;;;;;;;;0.00;0.00;;;;;16.45;72.18;100654.13;4958425;28;45388;-64
2022/10/16 04:54:07;;;;;;;;;0.00;0.00;;;;;16.52;71.90;100671.41;4975969;28;45489;-64
2022/10/16 04:56:32;;;;;;;;;0.00;0.00;;;;;16.33;72.45;100665.31;4974593;28;45453;-64
2022/10/16 04:58:58;;;;;;;;;0.00;0.00;;;;;16.34;72.61;100678.88;4975913;28;45442;-65
2022/10/16 05:01:23;;;;;;;;;0.00;0.00;;;;;16.37;72.67;100674.78;4974385;28;45512;-64
2022/10/16 05:03:49;;;;;;;;;0.00;0.00;;;;;16.36;72.78;100685.03;4974764;28;45333;-64
2022/10/16 05:06:14;;;;;;;;;0.00;0.00;;;;;16.41;72.51;100692.56;4976424;28;45857;-65
2022/10/16 05:08:40;;;;;;;;;0.25;0.00;;;;;16.36;72.51;100685.03;4975361;28;46361;-65
2022/10/16 05:11:05;;;;;;;;;0.00;0.00;;;;;16.45;72.50;100691.00;4975699;28;45336;-66
2022/10/16 05:13:31;;;;;;;;;2.00;0.00;;;;;16.44;72.24;100688.47;4975792;28;45359;-65
2022/10/16 05:15:57;;;;;;;;;0.00;0.00;;;;;16.48;72.34;100687.69;4974635;28;45446;-66
2022/10/16 05:18:22;;;;;;;;;0.00;0.00;;;;;16.47;72.49;100693.50;4975824;28;45317;-66
2022/10/16 05:20:48;;;;;;;;;1.00;1.00;;;;;16.46;72.32;100694.59;4975777;28;45340;-65
2022/10/16 05:23:13;;;;;;;;;0.00;0.00;;;;;16.46;72.73;100703.75;4975751;28;45335;-66
2022/10/16 05:25:39;;;;;;;;;0.00;0.00;;;;;16.50;72.38;100712.38;4974342;28;45387;-65
2022/10/16 05:28:04;;;;;;;;;0.25;0.25;;;;;16.38;72.71;100705.00;4975290;28;45491;-64
2022/10/16 05:30:30;;;;;;;;;0.00;0.00;;;;;16.17;72.70;100667.00;4975286;28;45407;-64
2022/10/16 05:32:55;;;;;;;;;0.00;0.00;;;;;16.46;72.63;100714.81;4976573;28;45381;-66
2022/10/16 05:35:21;;;;;;;;;0.25;0.25;;;;;16.47;72.43;100713.72;4979528;28;45414;-65
2022/10/16 05:37:47;;;;;;;;;0.00;0.00;;;;;16.49;72.26;100708.78;4979047;28;45465;-65
2022/10/16 05:40:12;;;;;;;;;0.00;0.00;;;;;16.35;72.18;100690.81;4979284;28;45798;-64
2022/10/16 05:42:38;;;;;;;;;2.25;2.00;;;;;16.51;72.88;100714.06;4977701;28;45358;-63
2022/10/16 05:45:05;;;;;;;;;0.25;0.25;;;;;16.34;72.14;100678.88;4978033;28;45383;-64
2022/10/16 05:47:31;;;;;;;;;0.00;0.00;;;;;16.49;72.18;100719.84;4961444;28;46363;-65
2022/10/16 05:49:56;;;;;;;;;1.00;0.00;;;;;16.47;72.35;100722.03;4977206;28;45399;-65
2022/10/16 05:52:22;;;;;;;;;0.00;0.00;;;;;16.48;72.25;100715.41;4952276;28;45331;-65
2022/10/16 05:54:47;;;;;;;;;0.00;0.00;;;;;16.51;72.27;100701.06;4959398;28;45563;-64
2022/10/16 05:57:13;;;;;;;;;0.75;0.75;;;;;16.48;72.44;100707.09;4942297;28;46570;-65
2022/10/16 05:59:38;;;;;;;;;0.25;0.25;;;;;16.48;72.49;100718.19;4973727;28;45670;-64
2022/10/16 06:02:04;;;;;;;;;1.00;1.00;;;;;16.46;72.76;100716.75;4977653;28;45472;-65
2022/10/16 06:04:29;;;;;;;;;0.75;0.75;;;;;16.47;72.49;100721.19;4977503;28;45302;-64
2022/10/16 06:07:00;;;;;;;;;0.00;0.00;;;;;16.48;72.60;100714.56;4978453;28;46455;-64
2022/10/16 06:09:25;;;;;;;;;1.00;0.20;;;;;16.35;72.88;100699.13;4977420;28;45405;-64
2022/10/16 06:11:51;;;;;;;;;1.00;0.00;;;;;16.26;72.77;100682.94;4978685;28;45351;-64
2022/10/16 06:14:16;;;;;;;;;0.00;0.00;;;;;16.39;72.83;100709.44;4977473;28;45564;-64
2022/10/16 06:16:42;;;;;;;;;2.75;1.00;;;;;16.43;72.87;100715.31;4978522;28;46203;-64
2022/10/16 06:19:11;;;;;;;;;0.00;0.00;;;;;16.43;72.80;100720.03;4977243;28;45355;-65
2022/10/16 06:21:36;;;;;;;;;0.80;0.80;;;;;16.17;72.90;100678.88;4978833;28;45296;-65
2022/10/16 06:24:02;;;;;;;;;2.00;1.00;;;;;16.31;72.88;100707.09;4977222;28;45339;-65
2022/10/16 06:26:28;;;;;;;;;0.00;0.00;;;;;16.42;73.19;100723.91;4977471;28;45556;-65
2022/10/16 06:28:55;;;;;;;;;0.80;0.40;;;;;15.75;73.82;100613.69;4976630;28;45529;-65
2022/10/16 06:31:21;;;;;;;;;1.80;0.00;;;;;16.36;73.37;100712.72;4976938;28;45359;-65
2022/10/16 06:33:50;;;;;;;;;0.00;0.00;;;;;16.19;73.01;100676.72;4978230;28;45573;-65
2022/10/16 06:36:16;;;;;;;;;0.60;0.60;;;;;16.43;73.19;100720.03;4960291;28;45776;-65
2022/10/16 06:38:42;;;;;;;;;0.60;0.60;;;;;16.38;73.80;100716.06;4960952;28;45385;-67
2022/10/16 06:41:09;;;;;;;;;2.00;2.00;;;;;16.39;73.29;100709.44;4944158;28;45399;-66
2022/10/16 06:43:37;;;;;;;;;0.60;0.60;;;;;16.36;73.62;100717.41;4960380;28;45529;-66
2022/10/16 06:46:03;;;;;;;;;1.40;1.40;;;;;16.36;73.80;100732.13;4960127;28;47667;-66
2022/10/16 06:48:29;;;;;;;;;0.20;0.20;;;;;16.33;73.95;100729.84;4977834;28;45320;-65
2022/10/16 06:50:58;;;;;;;;;0.50;0.50;;;;;16.31;73.77;100726.47;4976476;28;45400;-63
2022/10/16 06:53:23;;;;;;;;;1.20;0.20;;;;;16.30;73.80;100738.66;4977753;28;45589;-63
2022/10/16 06:55:49;;;;;;;;;1.00;1.00;;;;;16.34;73.71;100742.59;4976249;28;46458;-65
2022/10/16 06:58:14;;;;;;;;;2.50;1.00;;;;;16.36;74.01;100747.88;4960131;28;45448;-64
2022/10/16 07:00:40;;;;;;;;;2.75;1.00;;;;;16.38;73.83;100763.16;4976419;28;45496;-65
2022/10/16 07:03:05;;;;;;;;;1.50;1.50;;;;;16.43;73.69;100761.59;4977682;28;45319;-65
2022/10/16 07:05:31;;;;;;;;;1.75;1.75;;;;;16.29;73.66;100736.13;4976216;28;47479;-65
2022/10/16 07:07:56;;;;;;;;;1.50;0.50;;;;;16.24;73.83;100732.16;4977440;28;45413;-64
2022/10/16 07:10:25;;;;;;;;;0.25;0.25;;;;;16.44;74.18;100764.06;4977318;28;45408;-64
2022/10/16 07:12:50;;;;;;;;;1.20;1.20;;;;;16.47;73.58;100776.59;4976637;28;45448;-64
2022/10/16 07:15:16;;;;;;;;;1.00;1.00;;;;;16.38;73.64;100765.94;4977054;28;45459;-64
2022/10/16 07:17:42;;;;;;;;;4.00;2.25;;;;;16.58;73.72;100784.00;4977428;28;45450;-68
2022/10/16 07:20:08;;;;;;;;;1.00;1.00;;;;;16.59;73.54;100776.53;4959947;28;45347;-67
2022/10/16 07:22:33;;;;;;;;;1.40;1.00;;;;;16.59;73.46;100782.06;4977612;28;45339;-68
2022/10/16 07:24:59;;;;;;;;;2.00;0.75;;;;;16.57;73.48;100784.22;4976099;28;48547;-69
2022/10/16 07:27:24;;;;;;;;;2.50;1.50;;;;;16.42;72.96;100751.59;4977188;28;45521;-69
2022/10/16 07:29:50;;;;;;;;;2.00;1.00;;;;;16.61;73.04;100786.28;4975940;28;45403;-67
2022/10/16 07:32:15;;;;;;;;;2.00;2.00;;;;;16.25;72.84;100725.56;4977390;28;45428;-68
2022/10/16 07:34:41;;;;;;;;;3.25;2.00;;;;;16.62;73.10;100785.19;4976042;28;45926;-69
2022/10/16 07:37:07;;;;;;;;;1.40;1.00;;;;;16.61;72.73;100786.28;4976239;28;45340;-66
2022/10/16 07:39:33;;;;;;;;;1.75;1.75;;;;;16.72;72.82;100800.28;4971338;28;45304;-67
2022/10/16 07:41:59;;;;;;;;;3.60;2.00;;;;;16.74;72.66;100807.25;4937180;28;45662;-68
2022/10/16 07:44:24;;;;;;;;;2.75;2.75;;;;;16.78;72.95;100815.91;4975356;28;45939;-69
2022/10/16 07:46:50;;;;;;;;;2.00;2.00;;;;;16.84;72.83;100819.59;4959449;28;45973;-68
2022/10/16 07:49:15;;;;;;;;;2.50;2.50;;;;;16.86;73.01;100834.88;4975615;28;45437;-68
2022/10/16 07:51:41;;;;;;;;;3.00;1.75;;;;;16.87;72.94;100821.88;4959459;28;45312;-65
2022/10/16 07:54:09;;;;;;;;;2.50;2.50;;;;;16.80;72.84;100814.56;4976790;28;45492;-65
2022/10/16 07:56:34;;;;;;;;;1.00;1.00;;;;;16.88;72.54;100810.53;4975235;28;45572;-62
2022/10/16 07:59:00;;;;;;;;;1.25;1.25;;;;;16.91;72.51;100817.47;4976769;28;45367;-64
2022/10/16 08:01:25;;;;;;;;;1.50;1.50;;;;;16.88;72.02;100813.31;4975439;28;45488;-64
2022/10/16 08:03:51;;;;;;;;;2.50;2.50;;;;;16.93;72.19;100820.88;4975283;28;47107;-62
2022/10/16 08:06:17;;;;;;;;;3.00;2.00;;;;;16.80;72.29;100800.69;4976337;28;45380;-63
2022/10/16 08:08:43;;;;;;;;;2.00;2.00;;;;;17.02;72.09;100836.00;4975106;28;45358;-63
2022/10/16 08:11:08;;;;;;;;;1.00;1.00;;;;;17.04;71.86;100831.03;4976880;28;45360;-64
2022/10/16 08:13:34;;;;;;;;;1.00;1.00;;;;;17.22;71.58;100853.22;4975039;28;46345;-65
2022/10/16 08:16:00;;;;;;;;;1.00;1.00;;;;;17.24;71.26;100851.84;4975010;28;45452;-65
2022/10/16 08:18:25;;;;;;;;;3.00;1.00;;;;;17.26;71.55;100854.38;4975466;28;45467;-65
2022/10/16 08:20:58;;;;;;;;;2.00;1.75;;;;;17.14;71.56;100824.81;4975226;28;45295;-64
2022/10/16 08:23:25;;;;;;;;;3.00;2.00;;;;;17.26;71.34;100829.41;4968990;28;46031;-64
2022/10/16 08:25:52;;;;;;;;;3.40;2.20;;;;;17.31;71.20;100849.75;4967361;28;45429;-62
2022/10/16 08:28:17;;;;;;;;;1.00;1.00;;;;;17.36;71.19;100837.91;4973476;28;45492;-64
2022/10/16 08:30:43;;;;;;;;;3.00;3.00;;;;;17.42;70.93;100842.44;4957017;28;45552;-62
2022/10/16 08:33:08;;;;;;;;;1.00;1.00;;;;;17.23;70.83;100827.16;4974818;28;45558;-62
2022/10/16 08:35:34;;;;;;;;;2.25;2.25;;;;;17.39;70.55;100845.69;4974726;28;45464;-62
2022/10/16 08:37:59;;;;;;;;;1.50;1.50;;;;;17.16;70.69;100811.53;4974949;28;45348;-63
2022/10/16 08:40:27;;;;;;;;;2.50;2.50;;;;;17.43;70.61;100837.69;4973823;28;45527;-62
2022/10/16 08:43:23;;;;;;;;;3.80;2.80;;;;;17.48;70.55;100852.50;4972932;28;45448;-62
2022/10/16 08:46:21;;;;;;;;;2.00;2.00;;;;;17.51;70.41;100856.69;4945716;28;45390;-61
2022/10/16 08:48:50;;;;;;;;;1.40;1.40;;;;;17.04;70.65;100774.75;4961036;28;45481;-61
2022/10/16 08:51:26;;;;;;;;;1.00;1.00;;;;;17.58;70.11;100862.91;4989802;28;45506;-60
2022/10/16 08:54:18;;;;;;;;;1.00;1.00;;;;;17.57;70.40;100857.59;4966080;28;46189;-62
2022/10/16 08:56:43;;;;;;;;;3.20;2.00;;;;;17.59;70.26;100866.50;4974671;28;45404;-61
2022/10/16 08:59:19;;;;;;;;;2.75;2.75;;;;;17.58;70.05;100859.28;4989173;28;45483;-63
2022/10/16 09:01:46;;;;;;;;;0.00;0.00;;;;;17.50;70.24;100851.41;4973335;28;45387;-63
2022/10/16 09:04:37;;;;;;;;;3.20;3.00;;;;;17.52;70.34;100860.28;4972620;28;47107;-63
2022/10/16 09:07:18;;;;;;;;;3.60;2.00;;;;;17.53;70.55;100868.38;4973545;28;45498;-63
2022/10/16 09:09:52;;;;;;;;;3.80;3.80;;;;;17.46;70.71;100839.97;4988000;28;45387;-63
2022/10/16 09:12:31;;;;;;;;;5.20;4.20;;;;;17.54;70.74;100869.19;4974467;28;45692;-61
2022/10/16 09:15:17;;;;;;;;;6.00;4.60;;;;;17.60;70.72;100871.81;4987997;28;45996;-62
2022/10/16 09:18:10;;;;;;;;;5.80;4.00;;;;;17.60;70.54;100870.94;4987629;28;45907;-62
2022/10/16 09:20:45;;;;;;;;;3.80;3.80;;;;;17.57;69.99;100844.53;4989571;28;45733;-60
2022/10/16 09:23:14;;;;;;;;;4.40;4.40;;;;;17.60;70.31;100848.75;4980201;28;45449;-62
2022/10/16 09:25:42;;;;;;;;;4.20;3.00;;;;;17.64;70.13;100855.47;4972643;28;46896;-63
2022/10/16 09:28:09;;;;;;;;;6.80;5.80;;;;;17.68;69.96;100853.03;4973725;28;45591;-64
2022/10/16 09:30:34;;;;;;;;;3.60;3.40;;;;;17.77;69.46;100862.56;4971071;28;45309;-64
2022/10/16 09:33:00;;;;;;;;;3.75;3.75;;;;;17.89;69.03;100868.03;4972773;28;45516;-63
2022/10/16 09:35:52;;;;;;;;;4.00;3.00;;;;;17.96;68.71;100868.66;4963251;28;47022;-67
2022/10/16 09:38:31;;;;;;;;;2.80;2.80;;;;;18.10;68.41;100873.84;4955662;28;45458;-64
2022/10/16 09:40:57;;;;;;;;;4.00;4.00;;;;;18.21;68.36;100870.09;4974154;28;45812;-64
2022/10/16 09:43:25;;;;;;;;;3.40;3.40;;;;;18.40;67.94;100878.06;4971638;28;45439;-62
2022/10/16 09:45:56;;;;;;;;;4.40;4.40;;;;;18.49;67.26;100881.22;4972975;28;45800;-64
2022/10/16 09:48:22;;;;;;;;;4.80;3.80;;;;;18.53;67.05;100876.81;4973167;28;45569;-61
2022/10/16 09:50:58;;;;;;;;;2.00;2.00;;;;;18.54;66.98;100868.22;4940871;28;45505;-61
2022/10/16 09:53:25;;;;;;;;;4.00;4.00;;;;;18.62;66.65;100863.28;4947483;28;45486;-67
2022/10/16 09:55:53;;;;;;;;;2.80;2.00;;;;;18.42;66.01;100825.84;4956717;28;45708;-63
2022/10/16 09:58:22;;;;;;;;;3.20;2.60;;;;;18.72;66.26;100868.09;4964394;28;45337;-61
2022/10/16 10:00:54;;;;;;;;;3.40;2.20;;;;;18.76;65.96;100855.34;4973331;28;45460;-63
2022/10/16 10:03:30;;;;;;;;;3.60;3.60;;;;;18.87;65.68;100853.47;4956029;28;45252;-65
2022/10/16 10:05:56;;;;;;;;;3.20;3.20;;;;;18.88;65.14;100838.50;4971307;28;46768;-68
2022/10/16 10:08:21;;;;;;;;;3.00;3.00;;;;;18.70;65.04;100796.91;4955653;28;45378;-68
2022/10/16 10:10:48;;;;;;;;;3.00;3.00;;;;;18.39;64.64;100737.47;4974068;28;45456;-68
2022/10/16 10:13:20;;;;;;;;;4.60;4.60;;;;;18.88;64.30;100819.03;4956348;28;45398;-70
2022/10/16 10:15:45;;;;;;;;;6.00;6.00;;;;;18.90;64.62;100820.41;4988410;28;46178;-66
2022/10/16 10:18:22;;;;;;;;;3.75;3.75;;;;;18.85;64.16;100802.84;4971175;28;45482;-66
2022/10/16 10:21:00;;;;;;;;;4.20;4.20;;;;;19.30;63.25;100834.91;4975434;28;45393;-65
2022/10/16 10:23:26;;;;;;;;;3.20;3.20;;;;;19.26;63.00;100778.13;4977215;28;45324;-68
2022/10/16 10:26:04;;;;;;;;;3.80;3.80;;;;;19.76;62.30;100823.16;4975511;28;47735;-66
2022/10/16 10:28:56;;;;;;;;;4.60;4.20;;;;;19.72;62.32;100832.34;4976600;28;45740;-67
2022/10/16 10:31:39;;;;;;;;;7.20;4.40;;;;;19.66;63.02;100841.78;4967884;28;45455;-67
2022/10/16 10:34:23;;;;;;;;;7.00;5.00;;;;;19.57;62.30;100839.50;4960104;28;45434;-65
2022/10/16 10:37:21;;;;;;;;;4.00;4.00;;;;;19.47;62.68;100839.44;4977045;28;45637;-64
2022/10/16 10:40:16;;;;;;;;;5.00;3.80;;;;;19.22;62.68;100800.06;4972633;28;45497;-67
2022/10/16 10:42:48;;;;;;;;;5.00;4.00;;;;;19.10;63.33;100797.50;4942293;28;45423;-64
2022/10/16 10:45:16;;;;;;;;;3.00;3.00;;;;;19.31;63.27;100839.38;4975705;28;45793;-62
2022/10/16 10:48:10;;;;;;;;;3.00;3.00;;;;;19.26;63.23;100841.28;4974757;28;47462;-61
2022/10/16 10:50:43;;;;;;;;;4.00;3.00;;;;;19.20;63.96;100841.25;4975908;28;45466;-66
2022/10/16 10:53:26;;;;;;;;;3.00;1.80;;;;;19.05;64.03;100822.50;4933545;28;46023;-65
2022/10/16 10:55:54;;;;;;;;;1.20;1.20;;;;;19.04;64.00;100820.84;4975183;28;45664;-68
2022/10/16 10:58:46;;;;;;;;;1.20;1.20;;;;;19.04;64.24;100808.84;4959059;28;47100;-67
2022/10/16 11:01:22;;;;;;;;;1.20;1.20;;;;;19.15;65.28;100840.38;4975482;28;45428;-66
2022/10/16 11:04:03;;;;;;;;;2.00;2.00;;;;;18.98;65.41;100807.16;4959874;28;45457;-68
2022/10/16 11:06:32;;;;;;;;;0.80;0.80;;;;;19.01;65.23;100810.22;4976638;28;45623;-73
2022/10/16 11:09:09;;;;;;;;;3.00;2.00;;;;;18.93;65.32;100814.34;4958452;28;45686;-70
2022/10/16 11:11:43;;;;;;;;;2.20;1.00;;;;;19.03;65.88;100819.16;4975736;28;45443;-71
2022/10/16 11:14:17;;;;;;;;;3.00;2.00;;;;;19.09;65.74;100820.03;4960645;28;45430;-70
2022/10/16 11:16:53;;;;;;;;;1.60;1.60;;;;;19.27;65.15;100832.69;4976317;28;45462;-70
2022/10/16 11:19:30;;;;;;;;;1.60;1.60;;;;;19.69;63.97;100813.41;4976588;28;45846;-69
2022/10/16 11:22:21;;;;;;;;;1.40;1.40;;;;;19.98;63.34;100813.81;4977548;28;45452;-72
2022/10/16 11:25:16;;;;;;;;;1.00;1.00;;;;;19.95;62.86;100806.00;4977600;28;45432;-69
2022/10/16 11:27:44;;;;;;;;;1.00;1.00;;;;;19.83;62.92;100794.22;4975443;28;45785;-71
2022/10/16 11:30:21;;;;;;;;;1.00;1.00;;;;;19.81;63.35;100804.81;4976014;28;46260;-71
2022/10/16 11:33:08;;;;;;;;;2.60;2.00;;;;;19.77;62.97;100804.53;4944245;28;45274;-67
2022/10/16 11:35:53;;;;;;;;;0.00;0.00;;;;;19.60;63.44;100811.16;4975918;28;45200;-63